Happy Falcon — OXPC2 — position and weather

sailwx.info

Track history (hours):
 
Tides and Currents Weather Stations Pressure Air Temp Water Temp Dewpoint Dewpoint Depression Visibility Wind Speed Wind Dir Waves Ship Positions

Happy Falcon

Last reported at 2017-Sep-25 15:00 UTC. Time now 2017-Sep-25 15:12 UTC.
Position N 50°29' W 000°04'.

Length 96 m; draft 4.9 m.

Type: Ship. MMSI: 219876000.

Date/timePositionNaut miles runAvg speedWind from/ knotsBaromVisibWave heightAir tempDewpointWater temp
2017-Sep-25 15:00N 50°29' W 000°04'713.0
2017-Sep-25 14:30N 50°30' E 000°05'712.3
2017-Sep-25 13:58N 50°32' E 000°15'611.9
2017-Sep-25 13:27N 50°34' E 000°25'511.6
2017-Sep-25 13:00N 50°35' E 000°33'611.5
2017-Sep-25 12:30N 50°38' E 000°41'611.7
2017-Sep-25 12:00N 50°41' E 000°48'612.1
2017-Sep-25 11:30N 50°45' E 000°56'712.8
2017-Sep-25 10:57N 50°49' E 001°05'613.7
2017-Sep-25 10:30N 50°53' E 001°12'714.5
2017-Sep-25 10:00N 50°57' E 001°21'714.0
2017-Sep-25 09:31N 51°02' E 001°29'714.1
2017-Sep-25 09:00N 51°08' E 001°36'713.5
2017-Sep-25 08:30N 51°12' E 001°44'612.6
2017-Sep-25 08:00N 51°18' E 001°50'611.6
2017-Sep-25 07:30N 51°22' E 001°55'510.2
2017-Sep-25 07:00N 51°24' E 002°03'611.8
2017-Sep-25 06:30N 51°22' E 002°11'611.1
2017-Sep-25 06:00N 51°21' E 002°20'611.1
2017-Sep-25 05:30N 51°23' E 002°29'611.1
2017-Sep-25 05:00N 51°23' E 002°37'510.7
2017-Sep-25 04:30N 51°22' E 002°46'611.6
2017-Sep-25 04:00N 51°23' E 002°55'611.9
2017-Sep-25 03:30N 51°24' E 003°05'611.9
2017-Sep-25 03:00N 51°25' E 003°14'510.9
2017-Sep-25 02:30N 51°25' E 003°23'510.7
2017-Sep-25 02:00N 51°25' E 003°31'5 9.6
2017-Sep-25 01:30N 51°25' E 003°39'611.7
2017-Sep-25 01:00N 51°22' E 003°47'510.6
2017-Sep-25 00:30N 51°22' E 003°55'510.6
2017-Sep-25 00:00N 51°26' E 004°01'611.6
2017-Sep-24 23:31N 51°22' E 004°08'5 9.5
2017-Sep-24 23:00N 51°21' E 004°15'2 3.0
2017-Sep-24 22:29N 51°21' E 004°17'0 0.0
2017-Sep-24 21:59N 51°21' E 004°17'1 1.5
2017-Sep-24 21:30N 51°20' E 004°18'3 5.9
2017-Sep-24 21:01N 51°17' E 004°20'2 3.1
2017-Sep-24 20:26N 51°16' E 004°20'0 0.0
2017-Sep-24 19:53N 51°16' E 004°20'0 0.0
2017-Sep-24 19:29N 51°16' E 004°20'0 0.0
2017-Sep-24 18:59N 51°16' E 004°20'0 0.0
2017-Sep-24 18:20N 51°16' E 004°20'0 0.0
2017-Sep-24 17:59N 51°16' E 004°20'0 0.0
2017-Sep-24 17:23N 51°16' E 004°20'0 0.0
2017-Sep-24 16:59N 51°16' E 004°20'0 0.0
2017-Sep-24 16:17N 51°16' E 004°20'0 0.0
2017-Sep-24 15:59N 51°16' E 004°20'0 0.0
2017-Sep-24 15:29N 51°16' E 004°20'0 0.0
2017-Sep-24 14:59N 51°16' E 004°20'0 0.0
2017-Sep-24 14:29N 51°16' E 004°20'0 0.0
2017-Sep-24 13:59N 51°16' E 004°20'0 0.0
2017-Sep-24 13:29N 51°16' E 004°20'0 0.0
2017-Sep-24 12:59N 51°16' E 004°20'0 0.0
2017-Sep-24 12:29N 51°16' E 004°20'0 0.0
2017-Sep-24 11:56N 51°16' E 004°20'0 0.0
2017-Sep-24 11:29N 51°16' E 004°20'0 0.0
2017-Sep-24 10:59N 51°16' E 004°20'0 0.0
2017-Sep-24 10:26N 51°16' E 004°20'0 0.0
2017-Sep-24 09:53N 51°16' E 004°20'0 0.0
2017-Sep-24 09:26N 51°16' E 004°20'0 0.0
2017-Sep-24 08:59N 51°16' E 004°20'0 0.0
2017-Sep-24 08:20N 51°16' E 004°20'0 0.0
2017-Sep-24 07:59N 51°16' E 004°20'0 0.0
2017-Sep-24 07:29N 51°16' E 004°20'0 0.0
2017-Sep-24 06:59N 51°16' E 004°20'0 0.0
2017-Sep-24 06:17N 51°16' E 004°20'0 0.0
2017-Sep-24 05:59N 51°16' E 004°20'0 0.0
2017-Sep-24 05:26N 51°16' E 004°20'0 0.0
2017-Sep-24 04:56N 51°16' E 004°20'0 0.0
2017-Sep-24 04:29N 51°16' E 004°20'0 0.0
2017-Sep-24 03:59N 51°16' E 004°20'0 0.0
2017-Sep-24 03:26N 51°16' E 004°20'0 0.0
2017-Sep-24 02:53N 51°16' E 004°20'0 0.0
2017-Sep-24 02:26N 51°16' E 004°20'0 0.0
2017-Sep-24 01:59N 51°16' E 004°20'0 0.0
2017-Sep-24 01:29N 51°16' E 004°20'0 0.0
2017-Sep-24 00:50N 51°16' E 004°20'0 0.0
2017-Sep-24 00:26N 51°16' E 004°20'0 0.0
2017-Sep-23 23:56N 51°16' E 004°20'0 0.0
2017-Sep-23 23:26N 51°16' E 004°20'0 0.0
2017-Sep-23 22:56N 51°16' E 004°20'0 0.0
2017-Sep-23 22:29N 51°16' E 004°20'0 0.0
2017-Sep-23 21:56N 51°16' E 004°20'0 0.0
2017-Sep-23 21:29N 51°16' E 004°20'0 0.0
2017-Sep-23 20:56N 51°16' E 004°20'0 0.0
2017-Sep-23 20:29N 51°16' E 004°20'0 0.0
2017-Sep-23 19:56N 51°16' E 004°20'141 3.3
2017-Sep-22 01:05N 52°55' E 001°38'1311.9
2017-Sep-22 00:00N 53°05' E 001°25'5611.8
2017-Sep-21 19:14N 53°34' E 000°04'312.4
2017-Sep-21 18:59N 53°35' W 000°00'511.5
2017-Sep-21 18:30N 53°38' W 000°09'3 4.8
2017-Sep-21 17:58N 53°39' W 000°13'0 0.0
2017-Sep-21 17:28N 53°39' W 000°13'0 0.0
2017-Sep-21 16:58N 53°39' W 000°13'0 0.0
2017-Sep-21 01:52N 53°39' W 000°13'0 0.0
2017-Sep-20 20:58N 53°39' W 000°13'0 0.0
2017-Sep-20 16:10N 53°39' W 000°13'0 0.0
2017-Sep-20 14:59N 53°39' W 000°13'1 0.5
2017-Sep-20 14:00N 53°39' W 000°12'2 4.8
2017-Sep-20 13:31N 53°38' W 000°08'510.9
2017-Sep-20 13:00N 53°35' E 000°00'  
2017-Sep-17 15:10N 53°36' W 000°03'211.9
2017-Sep-17 14:59N 53°37' W 000°07'4 8.3
2017-Sep-17 14:30N 53°39' W 000°12'0 0.1
2017-Sep-17 12:58N 53°39' W 000°13'0 0.0
2017-Sep-17 12:28N 53°39' W 000°13'0 0.0
2017-Sep-17 11:52N 53°39' W 000°13'0 0.0
2017-Sep-17 11:28N 53°39' W 000°13'0 0.0
2017-Sep-17 10:52N 53°39' W 000°13'0 0.5
2017-Sep-17 10:30N 53°39' W 000°13'0 0.2
2017-Sep-17 10:00N 53°39' W 000°13'2 3.4
2017-Sep-17 09:30N 53°38' W 000°10'4 8.4
2017-Sep-17 09:01N 53°37' W 000°04'  
Track history (hours):
 
Tides and Currents Weather Stations Pressure Air Temp Water Temp Dewpoint Dewpoint Depression Visibility Wind Speed Wind Dir Waves Ship Positions

Happy Falcon

Last reported at 2017-Sep-25 15:00 UTC. Time now 2017-Sep-25 15:12 UTC.
Position N 50°29' W 000°04'.

Length 96 m; draft 4.9 m.

Type: Ship. MMSI: 219876000.

Date/timePositionNaut miles runAvg speedWind from/ knotsBaromVisibWave heightAir tempDewpointWater temp
2017-Sep-25 15:00N 50°29' W 000°04'713.0
2017-Sep-25 14:30N 50°30' E 000°05'712.3
2017-Sep-25 13:58N 50°32' E 000°15'611.9
2017-Sep-25 13:27N 50°34' E 000°25'511.6
2017-Sep-25 13:00N 50°35' E 000°33'611.5
2017-Sep-25 12:30N 50°38' E 000°41'611.7
2017-Sep-25 12:00N 50°41' E 000°48'612.1
2017-Sep-25 11:30N 50°45' E 000°56'712.8
2017-Sep-25 10:57N 50°49' E 001°05'613.7
2017-Sep-25 10:30N 50°53' E 001°12'714.5
2017-Sep-25 10:00N 50°57' E 001°21'714.0
2017-Sep-25 09:31N 51°02' E 001°29'714.1
2017-Sep-25 09:00N 51°08' E 001°36'713.5
2017-Sep-25 08:30N 51°12' E 001°44'612.6
2017-Sep-25 08:00N 51°18' E 001°50'611.6
2017-Sep-25 07:30N 51°22' E 001°55'510.2
2017-Sep-25 07:00N 51°24' E 002°03'611.8
2017-Sep-25 06:30N 51°22' E 002°11'611.1
2017-Sep-25 06:00N 51°21' E 002°20'611.1
2017-Sep-25 05:30N 51°23' E 002°29'611.1
2017-Sep-25 05:00N 51°23' E 002°37'510.7
2017-Sep-25 04:30N 51°22' E 002°46'611.6
2017-Sep-25 04:00N 51°23' E 002°55'611.9
2017-Sep-25 03:30N 51°24' E 003°05'611.9
2017-Sep-25 03:00N 51°25' E 003°14'510.9
2017-Sep-25 02:30N 51°25' E 003°23'510.7
2017-Sep-25 02:00N 51°25' E 003°31'5 9.6
2017-Sep-25 01:30N 51°25' E 003°39'611.7
2017-Sep-25 01:00N 51°22' E 003°47'510.6
2017-Sep-25 00:30N 51°22' E 003°55'510.6
2017-Sep-25 00:00N 51°26' E 004°01'611.6
2017-Sep-24 23:31N 51°22' E 004°08'5 9.5
2017-Sep-24 23:00N 51°21' E 004°15'2 3.0
2017-Sep-24 22:29N 51°21' E 004°17'0 0.0
2017-Sep-24 21:59N 51°21' E 004°17'1 1.5
2017-Sep-24 21:30N 51°20' E 004°18'3 5.9
2017-Sep-24 21:01N 51°17' E 004°20'2 3.1
2017-Sep-24 20:26N 51°16' E 004°20'0 0.0
2017-Sep-24 19:53N 51°16' E 004°20'0 0.0
2017-Sep-24 19:29N 51°16' E 004°20'0 0.0
2017-Sep-24 18:59N 51°16' E 004°20'0 0.0
2017-Sep-24 18:20N 51°16' E 004°20'0 0.0
2017-Sep-24 17:59N 51°16' E 004°20'0 0.0
2017-Sep-24 17:23N 51°16' E 004°20'0 0.0
2017-Sep-24 16:59N 51°16' E 004°20'0 0.0
2017-Sep-24 16:17N 51°16' E 004°20'0 0.0
2017-Sep-24 15:59N 51°16' E 004°20'0 0.0
2017-Sep-24 15:29N 51°16' E 004°20'0 0.0
2017-Sep-24 14:59N 51°16' E 004°20'0 0.0
2017-Sep-24 14:29N 51°16' E 004°20'0 0.0
2017-Sep-24 13:59N 51°16' E 004°20'0 0.0
2017-Sep-24 13:29N 51°16' E 004°20'0 0.0
2017-Sep-24 12:59N 51°16' E 004°20'0 0.0
2017-Sep-24 12:29N 51°16' E 004°20'0 0.0
2017-Sep-24 11:56N 51°16' E 004°20'0 0.0
2017-Sep-24 11:29N 51°16' E 004°20'0 0.0
2017-Sep-24 10:59N 51°16' E 004°20'0 0.0
2017-Sep-24 10:26N 51°16' E 004°20'0 0.0
2017-Sep-24 09:53N 51°16' E 004°20'0 0.0
2017-Sep-24 09:26N 51°16' E 004°20'0 0.0
2017-Sep-24 08:59N 51°16' E 004°20'0 0.0
2017-Sep-24 08:20N 51°16' E 004°20'0 0.0
2017-Sep-24 07:59N 51°16' E 004°20'0 0.0
2017-Sep-24 07:29N 51°16' E 004°20'0 0.0
2017-Sep-24 06:59N 51°16' E 004°20'0 0.0
2017-Sep-24 06:17N 51°16' E 004°20'0 0.0
2017-Sep-24 05:59N 51°16' E 004°20'0 0.0
2017-Sep-24 05:26N 51°16' E 004°20'0 0.0
2017-Sep-24 04:56N 51°16' E 004°20'0 0.0
2017-Sep-24 04:29N 51°16' E 004°20'0 0.0
2017-Sep-24 03:59N 51°16' E 004°20'0 0.0
2017-Sep-24 03:26N 51°16' E 004°20'0 0.0
2017-Sep-24 02:53N 51°16' E 004°20'0 0.0
2017-Sep-24 02:26N 51°16' E 004°20'0 0.0
2017-Sep-24 01:59N 51°16' E 004°20'0 0.0
2017-Sep-24 01:29N 51°16' E 004°20'0 0.0
2017-Sep-24 00:50N 51°16' E 004°20'0 0.0
2017-Sep-24 00:26N 51°16' E 004°20'0 0.0
2017-Sep-23 23:56N 51°16' E 004°20'0 0.0
2017-Sep-23 23:26N 51°16' E 004°20'0 0.0
2017-Sep-23 22:56N 51°16' E 004°20'0 0.0
2017-Sep-23 22:29N 51°16' E 004°20'0 0.0
2017-Sep-23 21:56N 51°16' E 004°20'0 0.0
2017-Sep-23 21:29N 51°16' E 004°20'0 0.0
2017-Sep-23 20:56N 51°16' E 004°20'0 0.0
2017-Sep-23 20:29N 51°16' E 004°20'0 0.0
2017-Sep-23 19:56N 51°16' E 004°20'141 3.3
2017-Sep-22 01:05N 52°55' E 001°38'1311.9
2017-Sep-22 00:00N 53°05' E 001°25'5611.8
2017-Sep-21 19:14N 53°34' E 000°04'312.4
2017-Sep-21 18:59N 53°35' W 000°00'511.5
2017-Sep-21 18:30N 53°38' W 000°09'3 4.8
2017-Sep-21 17:58N 53°39' W 000°13'0 0.0
2017-Sep-21 17:28N 53°39' W 000°13'0 0.0
2017-Sep-21 16:58N 53°39' W 000°13'0 0.0
2017-Sep-21 01:52N 53°39' W 000°13'0 0.0
2017-Sep-20 20:58N 53°39' W 000°13'0 0.0
2017-Sep-20 16:10N 53°39' W 000°13'0 0.0
2017-Sep-20 14:59N 53°39' W 000°13'1 0.5
2017-Sep-20 14:00N 53°39' W 000°12'2 4.8
2017-Sep-20 13:31N 53°38' W 000°08'510.9
2017-Sep-20 13:00N 53°35' E 000°00'  
2017-Sep-17 15:10N 53°36' W 000°03'211.9
2017-Sep-17 14:59N 53°37' W 000°07'4 8.3
2017-Sep-17 14:30N 53°39' W 000°12'0 0.1
2017-Sep-17 12:58N 53°39' W 000°13'0 0.0
2017-Sep-17 12:28N 53°39' W 000°13'0 0.0
2017-Sep-17 11:52N 53°39' W 000°13'0 0.0
2017-Sep-17 11:28N 53°39' W 000°13'0 0.0
2017-Sep-17 10:52N 53°39' W 000°13'0 0.5
2017-Sep-17 10:30N 53°39' W 000°13'0 0.2
2017-Sep-17 10:00N 53°39' W 000°13'2 3.4
2017-Sep-17 09:30N 53°38' W 000°10'4 8.4
2017-Sep-17 09:01N 53°37' W 000°04'  

Dump ship's entire track history